Time;durP1;ratioP1;P1;durP2;ratioP2;P2;SDS_P1;SDS_P2;PMS_P1;PMS_P2;Temp;Humidity;BMP_temperature;BMP_pressure;BME280_temperature;BME280_humidity;BME280_pressure;Samples;Min_cycle;Max_cycle;Signal;HPM_P1;HPM_P2
2022/12/07 00:00:55;;;;;;;95.77;38.10;;;;;;;-141.97;100.00;47903.50;4992216;28;21031;-80
2022/12/07 00:03:20;;;;;;;90.37;36.23;;;;;;;-141.97;100.00;47901.59;4994952;28;20257;-80
2022/12/07 00:05:45;;;;;;;86.97;33.77;;;;;;;-141.97;100.00;47911.19;4996129;28;20443;-81
2022/12/07 00:08:11;;;;;;;88.63;33.37;;;;;;;-141.97;100.00;47888.13;4996324;28;20175;-82
2022/12/07 00:10:36;;;;;;;85.73;33.40;;;;;;;-141.97;100.00;47870.81;4997219;28;20171;-81
2022/12/07 00:13:02;;;;;;;95.37;37.00;;;;;;;-141.97;100.00;47909.28;4996820;28;20175;-82
2022/12/07 00:15:27;;;;;;;97.40;38.33;;;;;;;-141.97;100.00;47866.97;4996602;28;20174;-81
2022/12/07 00:17:53;;;;;;;85.33;35.30;;;;;;;-141.97;100.00;47899.66;4995406;28;20167;-82
2022/12/07 00:20:18;;;;;;;92.73;33.73;;;;;;;-141.97;100.00;47907.34;4995688;28;20206;-81
2022/12/07 00:22:43;;;;;;;83.47;32.90;;;;;;;-141.97;100.00;47890.06;4996243;28;20168;-81
2022/12/07 00:25:09;;;;;;;88.43;33.07;;;;;;;-141.97;100.00;47870.81;4995898;28;20244;-82
2022/12/07 00:27:34;;;;;;;87.20;32.37;;;;;;;-141.97;100.00;47907.34;4995496;28;20212;-81
2022/12/07 00:30:00;;;;;;;89.60;33.63;;;;;;;-141.97;100.00;47915.03;4995440;28;20214;-82
2022/12/07 00:32:26;;;;;;;86.37;33.97;;;;;;;-141.97;100.00;47888.13;4995372;28;20256;-81
2022/12/07 00:34:51;;;;;;;90.57;35.33;;;;;;;-141.97;100.00;47918.88;4995018;28;20182;-80
2022/12/07 00:37:16;;;;;;;86.07;34.80;;;;;;;-141.97;100.00;47880.44;4995572;28;20178;-81
2022/12/07 00:39:42;;;;;;;85.37;33.73;;;;;;;-141.97;100.00;47965.03;4994897;28;20675;-81
2022/12/07 00:42:07;;;;;;;94.13;34.27;;;;;;;-141.97;100.00;47909.28;4995725;28;20175;-81
2022/12/07 00:44:33;;;;;;;83.93;33.30;;;;;;;-141.97;100.00;47915.03;4995297;28;20168;-81
2022/12/07 00:46:58;;;;;;;89.67;33.90;;;;;;;-141.97;100.00;47861.22;4993933;28;20186;-81
2022/12/07 00:49:23;;;;;;;86.07;32.90;;;;;;;-141.97;100.00;47876.59;4995251;28;20180;-81
2022/12/07 00:51:49;;;;;;;80.67;31.60;;;;;;;-141.97;100.00;47872.75;4995333;28;20629;-80
2022/12/07 00:54:14;;;;;;;83.50;30.27;;;;;;;-141.97;100.00;47859.28;4995224;28;20167;-80
2022/12/07 00:56:40;;;;;;;77.83;30.07;;;;;;;-141.97;100.00;47880.44;4994540;28;20535;-81
2022/12/07 00:59:06;;;;;;;72.00;27.57;;;;;;;-141.97;100.00;47907.34;4994719;28;20234;-82
2022/12/07 01:01:34;;;;;;;78.93;29.63;;;;;;;-141.97;100.00;47928.50;4994835;28;20221;-81
2022/12/07 01:04:01;;;;;;;67.03;28.43;;;;;;;-141.97;100.00;47897.75;4994944;28;20175;-81
2022/12/07 01:06:27;;;;;;;68.70;28.53;;;;;;;-141.97;100.00;47897.75;4994920;28;20403;-81
2022/12/07 01:08:52;;;;;;;70.10;28.57;;;;;;;-141.97;100.00;47903.50;4994990;28;20928;-81
2022/12/07 01:11:23;;;;;;;68.07;28.00;;;;;;;-141.97;100.00;47865.06;4977481;28;20250;-81
2022/12/07 01:13:54;;;;;;;75.97;28.67;;;;;;;-141.97;100.00;47922.72;4992823;28;20270;-81
2022/12/07 01:16:21;;;;;;;67.73;27.63;;;;;;;-141.97;100.00;47872.75;4977308;28;20505;-81
2022/12/07 01:18:48;;;;;;;68.17;27.73;;;;;;;-141.97;100.00;47865.06;5004607;28;20495;-82
2022/12/07 01:21:17;;;;;;;67.83;28.67;;;;;;;-141.97;100.00;47830.47;5013917;28;20461;-80
2022/12/07 01:23:43;;;;;;;71.47;28.33;;;;;;;-141.97;100.00;47884.28;5013984;28;20413;-81
2022/12/07 01:26:15;;;;;;;75.60;28.33;;;;;;;-141.97;100.00;47865.06;5012827;28;20925;-80
2022/12/07 01:28:40;;;;;;;67.77;26.53;;;;;;;-141.97;100.00;47872.75;5014093;28;20171;-81
2022/12/07 01:31:14;;;;;;;65.30;27.43;;;;;;;-141.97;100.00;47884.28;5013839;28;20995;-81
2022/12/07 01:33:40;;;;;;;68.63;28.70;;;;;;;-141.97;100.00;47884.28;5013589;28;20175;-81
2022/12/07 01:36:12;;;;;;;68.13;26.50;;;;;;;-141.97;100.00;47909.28;5013625;28;20979;-81
2022/12/07 01:38:38;;;;;;;61.47;26.53;;;;;;;-141.97;100.00;47907.34;5013610;28;20407;-80
2022/12/07 01:41:03;;;;;;;64.23;25.30;;;;;;;-141.97;100.00;47897.75;5013183;28;20460;-81
2022/12/07 01:43:31;;;;;;;60.43;24.70;;;;;;;-141.97;100.00;47895.81;5013543;28;20171;-81
2022/12/07 01:45:56;;;;;;;60.50;24.40;;;;;;;-141.97;100.00;47884.28;5013626;28;20163;-81
2022/12/07 01:48:30;;;;;;;54.80;23.37;;;;;;;-141.97;100.00;47865.06;5013670;28;20420;-81
2022/12/07 01:51:01;;;;;;;55.03;24.27;;;;;;;-141.97;100.00;47899.66;5013547;28;20257;-81
2022/12/07 01:53:29;;;;;;;57.70;23.13;;;;;;;-141.97;100.00;47905.44;5014072;28;20418;-80
2022/12/07 01:55:56;;;;;;;59.27;24.07;;;;;;;-141.97;100.00;47853.53;5014529;28;20917;-82
2022/12/07 01:58:22;;;;;;;70.67;25.43;;;;;;;-141.97;100.00;47920.81;5014033;28;20469;-80
2022/12/07 02:00:48;;;;;;;56.43;23.63;;;;;;;-141.97;100.00;48015.00;4995679;28;20560;-81
2022/12/07 02:03:37;;;;;;;59.27;23.83;;;;;;;-141.97;100.00;47890.06;5013625;28;20850;-81
2022/12/07 02:06:04;;;;;;;55.53;22.60;;;;;;;-141.97;100.00;47878.53;5011956;28;20533;-81
2022/12/07 02:08:30;;;;;;;57.60;23.37;;;;;;;-141.97;100.00;47922.72;5013544;28;20410;-80
2022/12/07 02:10:55;;;;;;;63.57;23.63;;;;;;;-141.97;100.00;47872.75;5014375;28;20909;-81
2022/12/07 02:13:29;;;;;;;63.20;25.97;;;;;;;-141.97;100.00;47882.38;5017073;28;20175;-80
2022/12/07 02:16:22;;;;;;;59.13;24.00;;;;;;;-141.97;100.00;47934.25;5014465;28;20167;-81
2022/12/07 02:19:07;;;;;;;54.57;21.80;;;;;;;-141.97;100.00;47920.81;5013256;28;20496;-82
2022/12/07 02:22:21;;;;;;;51.47;21.87;;;;;;;-141.97;100.00;47922.72;5012989;28;20480;-82
2022/12/07 02:24:58;;;;;;;49.73;20.03;;;;;;;-141.97;100.00;47922.72;4935916;29;20437;-81
2022/12/07 02:27:42;;;;;;;51.10;20.17;;;;;;;-141.97;100.00;47890.06;4947929;29;20967;-81
2022/12/07 02:30:11;;;;;;;50.13;20.33;;;;;;;-141.97;100.00;47895.81;4934710;29;20512;-81
2022/12/07 02:33:00;;;;;;;49.27;20.40;;;;;;;-141.97;100.00;47907.34;4933487;29;20917;-82
2022/12/07 02:35:35;;;;;;;51.93;20.73;;;;;;;-141.97;100.00;47938.09;4933495;29;20534;-81
2022/12/07 02:38:06;;;;;;;49.00;20.17;;;;;;;-141.97;100.00;47861.22;4933972;29;20956;-81
2022/12/07 02:41:03;;;;;;;47.00;20.13;;;;;;;-141.97;100.00;47866.97;4935417;29;20472;-82
2022/12/07 02:43:36;;;;;;;50.97;19.10;;;;;;;-141.97;100.00;47905.44;4878072;29;20428;-80
2022/12/07 02:46:06;;;;;;;47.60;18.80;;;;;;;-141.97;100.00;47888.13;4878570;29;20457;-81
2022/12/07 02:48:35;;;;;;;49.47;20.10;;;;;;;-141.97;100.00;47932.34;4877973;29;20955;-81
2022/12/07 02:51:00;;;;;;;50.23;20.10;;;;;;;-141.97;100.00;47874.69;4877785;29;20424;-81
2022/12/07 02:53:36;;;;;;;49.33;19.83;;;;;;;-141.97;100.00;47880.44;4877950;29;20842;-82
2022/12/07 02:56:36;;;;;;;47.60;19.73;;;;;;;-141.97;100.00;47911.19;4877816;29;20314;-82
2022/12/07 02:59:26;;;;;;;49.57;19.90;;;;;;;-141.97;100.00;47886.22;4876607;29;20480;-81
2022/12/07 03:02:04;;;;;;;42.43;18.57;;;;;;;-141.97;100.00;47918.88;4911601;29;20524;-81
2022/12/07 03:04:48;;;;;;;49.00;19.17;;;;;;;-141.97;100.00;47897.75;4914364;29;20478;-81
2022/12/07 03:07:32;;;;;;;44.47;18.53;;;;;;;-141.97;100.00;47872.75;4913459;29;20430;-82
2022/12/07 03:10:11;;;;;;;48.90;19.37;;;;;;;-141.97;100.00;47890.06;4914131;29;20430;-81
2022/12/07 03:13:07;;;;;;;46.43;19.50;;;;;;;-141.97;100.00;47884.28;4913819;29;20497;-82
2022/12/07 03:15:41;;;;;;;42.97;19.73;;;;;;;-141.97;100.00;47995.78;4913120;29;20855;-81
2022/12/07 03:18:08;;;;;;;53.23;21.80;;;;;;;-141.97;100.00;47913.13;4913638;29;21472;-81
2022/12/07 03:20:37;;;;;;;66.27;28.43;;;;;;;-141.97;100.00;47888.13;4958969;28;20581;-81
2022/12/07 03:23:07;;;;;;;59.00;25.93;;;;;;;-141.97;100.00;47899.66;4991182;28;20427;-81
2022/12/07 03:25:35;;;;;;;75.53;32.40;;;;;;;-141.97;100.00;47891.97;4992286;28;20846;-81
2022/12/07 03:28:05;;;;;;;60.73;25.53;;;;;;;-141.97;100.00;47916.97;4992274;28;20461;-82
2022/12/07 03:31:02;;;;;;;49.10;23.17;;;;;;;-141.97;100.00;47857.38;4992426;28;20411;-81
2022/12/07 03:33:59;;;;;;;57.47;23.03;;;;;;;-141.97;100.00;47859.28;4992358;28;20411;-82
2022/12/07 03:36:32;;;;;;;55.57;22.20;;;;;;;-141.97;100.00;47882.38;4931707;29;20826;-81
2022/12/07 03:39:10;;;;;;;50.10;20.70;;;;;;;-141.97;100.00;47872.75;4932252;29;20460;-82
2022/12/07 03:41:37;;;;;;;50.03;21.87;;;;;;;-141.97;100.00;47849.69;4932077;29;20488;-81
2022/12/07 03:44:03;;;;;;;47.10;20.37;;;;;;;-141.97;100.00;47903.50;4932611;29;21024;-81
2022/12/07 03:46:44;;;;;;;53.20;20.83;;;;;;;-141.97;100.00;47890.06;4932676;29;20435;-81
2022/12/07 03:49:35;;;;;;;54.53;22.47;;;;;;;-141.97;100.00;47878.53;4932524;29;20835;-81
2022/12/07 03:52:23;;;;;;;45.63;20.17;;;;;;;-141.97;100.00;47880.44;4876762;29;20463;-81
2022/12/07 03:55:00;;;;;;;50.27;21.27;;;;;;;-141.97;100.00;47870.81;4876348;29;20428;-81
2022/12/07 03:57:27;;;;;;;54.80;22.77;;;;;;;-141.97;100.00;47866.97;4875941;29;20999;-82
2022/12/07 03:59:55;;;;;;;55.13;23.40;;;;;;;-141.97;100.00;47868.91;4875328;29;20506;-80
2022/12/07 04:02:22;;;;;;;72.63;31.37;;;;;;;-141.97;100.00;47895.81;4876526;29;20932;-81
2022/12/07 04:04:47;;;;;;;78.60;32.00;;;;;;;-141.97;100.00;47922.72;4875946;29;20507;-81
2022/12/07 04:07:13;;;;;;;84.20;34.80;;;;;;;-141.97;100.00;47911.19;4875359;29;20504;-82
2022/12/07 04:09:39;;;;;;;85.83;37.10;;;;;;;-141.97;100.00;47865.06;4875427;29;20195;-82
2022/12/07 04:12:04;;;;;;;94.37;38.33;;;;;;;-141.97;100.00;47861.22;4876151;29;20745;-82
2022/12/07 04:14:30;;;;;;;59.00;26.60;;;;;;;-141.97;100.00;47888.13;4931802;29;20174;-81
2022/12/07 04:16:57;;;;;;;52.33;22.20;;;;;;;-141.97;100.00;47890.06;4931924;29;20198;-81
2022/12/07 04:19:26;;;;;;;48.93;21.30;;;;;;;-141.97;100.00;47863.13;4931845;29;20178;-82
2022/12/07 04:21:51;;;;;;;54.67;20.53;;;;;;;-141.97;100.00;47884.28;4931821;29;20469;-82
2022/12/07 04:24:17;;;;;;;47.77;19.80;;;;;;;-141.97;100.00;47899.66;4931694;29;20488;-81
2022/12/07 04:26:43;;;;;;;50.70;19.50;;;;;;;-141.97;100.00;47911.19;4931563;29;20178;-81
2022/12/07 04:29:10;;;;;;;42.87;18.87;;;;;;;-141.97;100.00;47853.53;4966522;28;20209;-81
2022/12/07 04:31:36;;;;;;;51.87;20.70;;;;;;;-141.97;100.00;47868.91;4992104;28;20418;-81
2022/12/07 04:34:02;;;;;;;51.27;19.70;;;;;;;-141.97;100.00;47911.19;4991573;28;20418;-81
2022/12/07 04:36:27;;;;;;;63.00;27.10;;;;;;;-141.97;100.00;47905.44;4991258;28;20445;-81
2022/12/07 04:38:54;;;;;;;74.83;32.33;;;;;;;-141.97;100.00;47880.44;4991707;28;20624;-81
2022/12/07 04:41:26;;;;;;;67.03;31.73;;;;;;;-141.97;100.00;47915.03;4991352;28;20199;-82
2022/12/07 04:43:56;;;;;;;64.47;29.30;;;;;;;-141.97;100.00;47922.72;4992191;28;20464;-81
2022/12/07 04:46:23;;;;;;;69.80;29.33;;;;;;;-141.97;100.00;47899.66;4991824;28;20406;-81
2022/12/07 04:48:49;;;;;;;70.13;28.53;;;;;;;-141.97;100.00;47876.59;4993065;28;20492;-82
2022/12/07 04:51:19;;;;;;;56.17;24.43;;;;;;;-141.97;100.00;47897.75;4994894;28;20450;-81
2022/12/07 04:53:45;;;;;;;61.20;25.57;;;;;;;-141.97;100.00;47899.66;4995634;28;20655;-81
2022/12/07 04:56:10;;;;;;;92.60;33.60;;;;;;;-141.97;100.00;47861.22;4995540;28;20411;-81
2022/12/07 04:58:35;;;;;;;104.73;42.37;;;;;;;-141.97;100.00;47895.81;4995065;28;20607;-81
2022/12/07 05:01:01;;;;;;;99.33;37.47;;;;;;;-141.97;100.00;47874.69;4995041;28;20265;-82
2022/12/07 05:03:26;;;;;;;89.20;40.10;;;;;;;-141.97;100.00;47886.22;4994961;28;20182;-81
2022/12/07 05:05:51;;;;;;;85.13;35.27;;;;;;;-141.97;100.00;47916.97;4995519;28;20173;-81
2022/12/07 05:08:17;;;;;;;82.80;35.47;;;;;;;-141.97;100.00;47909.28;4994886;28;20594;-81
2022/12/07 05:10:42;;;;;;;85.27;36.33;;;;;;;-141.97;100.00;47920.81;4994834;28;20194;-81
2022/12/07 05:13:07;;;;;;;88.23;36.47;;;;;;;-141.97;100.00;47897.75;4995375;28;20643;-81
2022/12/07 05:15:33;;;;;;;97.63;40.00;;;;;;;-141.97;100.00;47880.44;4995088;28;20167;-82
2022/12/07 05:17:59;;;;;;;82.73;34.87;;;;;;;-141.97;100.00;47884.28;4995448;28;20199;-82
2022/12/07 05:20:24;;;;;;;86.90;33.60;;;;;;;-141.97;100.00;47884.28;4994985;28;20266;-81
2022/12/07 05:22:49;;;;;;;99.30;31.43;;;;;;;-141.97;100.00;47922.72;4994730;28;20202;-81
2022/12/07 05:25:15;;;;;;;79.23;31.87;;;;;;;-141.97;100.00;47865.06;4994878;28;20167;-81
2022/12/07 05:27:40;;;;;;;82.37;36.30;;;;;;;-141.97;100.00;47915.03;4968053;28;20230;-80
2022/12/07 05:30:06;;;;;;;89.47;37.70;;;;;;;-141.97;100.00;47938.09;4991134;28;20187;-80
2022/12/07 05:32:31;;;;;;;93.03;40.33;;;;;;;-141.97;100.00;47901.59;4991546;28;20625;-81
2022/12/07 05:34:57;;;;;;;265.00;118.47;;;;;;;-141.97;100.00;47893.91;4991657;28;20191;-83
2022/12/07 05:37:22;;;;;;;249.43;105.67;;;;;;;-141.97;100.00;47884.28;4992979;28;20210;-80
2022/12/07 05:39:47;;;;;;;138.53;56.73;;;;;;;-141.97;100.00;47895.81;4992041;28;20187;-83
2022/12/07 05:42:13;;;;;;;114.13;47.70;;;;;;;-141.97;100.00;47897.75;4991554;28;20203;-83
2022/12/07 05:44:39;;;;;;;111.20;43.93;;;;;;;-141.97;100.00;47870.81;4992115;28;20183;-82
2022/12/07 05:47:05;;;;;;;102.10;43.97;;;;;;;-141.97;100.00;47876.59;4989285;28;20664;-81
2022/12/07 05:49:31;;;;;;;578.47;302.73;;;;;;;-141.97;100.00;47880.44;4984091;28;20473;-83
2022/12/07 05:51:56;;;;;;;227.43;98.90;;;;;;;-141.97;100.00;47868.91;4991577;28;20187;-81
2022/12/07 05:54:22;;;;;;;98.43;40.03;;;;;;;-141.97;100.00;47903.50;4990284;28;20262;-82
2022/12/07 05:56:47;;;;;;;84.73;35.70;;;;;;;-141.97;100.00;47965.03;4989795;28;20647;-81
2022/12/07 05:59:22;;;;;;;69.80;29.30;;;;;;;-141.97;100.00;47903.50;4988860;28;20231;-81
2022/12/07 06:01:48;;;;;;;76.40;29.83;;;;;;;-141.97;100.00;47903.50;4990866;28;20206;-81
2022/12/07 06:04:13;;;;;;;80.00;30.83;;;;;;;-141.97;100.00;47874.69;4990438;28;20489;-82
2022/12/07 06:06:38;;;;;;;60.17;25.20;;;;;;;-141.97;100.00;47907.34;4989822;28;20257;-82
2022/12/07 06:09:04;;;;;;;50.13;22.30;;;;;;;-141.97;100.00;47907.34;4981741;28;20214;-82
2022/12/07 06:14:13;;;;;;;50.23;20.40;;;;;;;-141.97;100.00;47895.81;4990261;28;20950;-80
2022/12/07 06:16:38;;;;;;;88.93;30.23;;;;;;;-141.97;100.00;47893.91;4989788;28;20434;-82
2022/12/07 06:19:04;;;;;;;105.07;39.77;;;;;;;-141.97;100.00;47849.69;4989462;28;20241;-81
2022/12/07 06:21:29;;;;;;;157.23;55.93;;;;;;;-141.97;100.00;47907.34;4989689;28;20217;-80
2022/12/07 06:23:55;;;;;;;216.57;97.87;;;;;;;-141.97;100.00;47888.13;4989717;28;20229;-80
2022/12/07 06:26:21;;;;;;;176.13;72.77;;;;;;;-141.97;100.00;47884.28;4977999;28;20294;-81
2022/12/07 06:28:46;;;;;;;76.50;29.13;;;;;;;-141.97;100.00;47899.66;4988583;28;20209;-82
2022/12/07 06:31:11;;;;;;;59.50;22.60;;;;;;;-141.97;100.00;47870.81;4989712;28;20247;-81
2022/12/07 06:33:37;;;;;;;54.23;23.73;;;;;;;-141.97;100.00;47897.75;4989822;28;20219;-82
2022/12/07 06:36:02;;;;;;;56.30;23.60;;;;;;;-141.97;100.00;47899.66;4990358;28;20191;-81
2022/12/07 06:38:28;;;;;;;75.90;30.13;;;;;;;-141.97;100.00;47899.66;4990074;28;20221;-81
2022/12/07 06:40:53;;;;;;;95.87;40.27;;;;;;;-141.97;100.00;47897.75;4988869;28;20217;-82
2022/12/07 06:43:19;;;;;;;61.93;25.93;;;;;;;-141.97;100.00;47870.81;4972484;28;20562;-82
2022/12/07 06:45:44;;;;;;;53.33;22.53;;;;;;;-141.97;100.00;47888.13;4973800;28;21034;-82
2022/12/07 06:48:09;;;;;;;56.00;22.23;;;;;;;-141.97;100.00;47938.09;4989288;28;20191;-82
2022/12/07 06:50:35;;;;;;;54.17;22.70;;;;;;;-141.97;100.00;47888.13;4988966;28;20187;-84
2022/12/07 06:53:00;;;;;;;52.27;21.47;;;;;;;-141.97;100.00;47911.19;4991978;28;20187;-84
2022/12/07 06:55:26;;;;;;;150.60;49.93;;;;;;;-141.97;100.00;47915.03;4994783;28;20218;-85
2022/12/07 06:57:51;;;;;;;133.70;45.23;;;;;;;-141.97;100.00;47884.28;4991941;28;21099;-83
2022/12/07 07:00:17;;;;;;;95.37;35.13;;;;;;;-141.97;100.00;47957.34;4990320;28;20211;-83
2022/12/07 07:02:42;;;;;;;50.57;21.77;;;;;;;-141.97;100.00;47895.81;4991493;28;20183;-85
2022/12/07 07:05:08;;;;;;;60.43;25.73;;;;;;;-141.97;100.00;47928.50;4991714;28;20237;-85
2022/12/07 07:07:33;;;;;;;69.07;29.37;;;;;;;-141.97;100.00;47880.44;4990114;28;20203;-84
2022/12/07 07:09:59;;;;;;;61.40;25.03;;;;;;;-141.97;100.00;47859.28;4991833;28;20187;-84
2022/12/07 07:12:24;;;;;;;62.73;27.47;;;;;;;-141.97;100.00;47911.19;4989927;28;20191;-82
2022/12/07 07:14:50;;;;;;;53.63;25.60;;;;;;;-141.97;100.00;47884.28;4989209;28;20198;-81
2022/12/07 07:17:15;;;;;;;52.43;22.47;;;;;;;-141.97;100.00;47911.19;4989710;28;20782;-80
2022/12/07 07:19:40;;;;;;;84.43;33.93;;;;;;;-141.97;100.00;47905.44;4990783;28;20242;-84
2022/12/07 07:22:06;;;;;;;78.00;32.90;;;;;;;-141.97;100.00;47888.13;4990960;28;20248;-83
2022/12/07 07:24:31;;;;;;;77.53;33.73;;;;;;;-141.97;100.00;47963.09;4989578;28;20233;-84
2022/12/07 07:26:57;;;;;;;64.53;29.33;;;;;;;-141.97;100.00;47876.59;4978722;28;20246;-84
2022/12/07 07:29:22;;;;;;;158.07;56.67;;;;;;;-141.97;100.00;47897.75;4990096;28;20242;-84
2022/12/07 07:31:48;;;;;;;88.87;37.63;;;;;;;-141.97;100.00;47882.38;4987959;28;20195;-83
2022/12/07 07:34:13;;;;;;;150.67;49.83;;;;;;;-141.97;100.00;47884.28;4989616;28;20186;-82
2022/12/07 07:36:38;;;;;;;147.60;51.67;;;;;;;-141.97;100.00;47853.53;4989812;28;20853;-82
2022/12/07 07:39:04;;;;;;;127.77;51.93;;;;;;;-141.97;100.00;47951.56;4990311;28;20179;-83
2022/12/07 07:41:30;;;;;;;102.80;43.70;;;;;;;-141.97;100.00;47872.75;4989080;28;20962;-82
2022/12/07 07:43:55;;;;;;;92.43;40.53;;;;;;;-141.97;100.00;47905.44;4989941;28;20686;-82
2022/12/07 07:46:21;;;;;;;107.13;44.33;;;;;;;-141.97;100.00;47984.25;4989431;28;20743;-82
2022/12/07 07:48:46;;;;;;;82.40;37.03;;;;;;;-141.97;100.00;47851.59;4989512;28;20229;-83
2022/12/07 07:51:11;;;;;;;82.00;34.80;;;;;;;-141.97;100.00;47897.75;4988817;28;20194;-83
2022/12/07 07:53:37;;;;;;;97.40;42.40;;;;;;;-141.97;100.00;47880.44;4989318;28;20266;-83
2022/12/07 07:56:03;;;;;;;116.43;51.17;;;;;;;-141.97;100.00;47832.38;4989323;28;21103;-82
2022/12/07 07:58:28;;;;;;;91.17;40.80;;;;;;;-141.97;100.00;47861.22;4988828;28;20310;-84
2022/12/07 08:00:54;;;;;;;97.27;41.50;;;;;;;-141.97;100.00;47899.66;4989963;28;20218;-82
2022/12/07 08:03:20;;;;;;;117.73;50.33;;;;;;;-141.97;100.00;47897.75;4988945;28;20179;-83
2022/12/07 08:05:45;;;;;;;140.53;54.20;;;;;;;-141.97;100.00;47903.50;4992062;28;20199;-83
2022/12/07 08:08:10;;;;;;;101.03;41.70;;;;;;;-141.97;100.00;47913.13;4992041;28;20173;-84
2022/12/07 08:10:37;;;;;;;276.63;121.13;;;;;;;-141.97;100.00;47930.41;4991160;28;20237;-83
2022/12/07 08:13:13;;;;;;;155.10;64.17;;;;;;;-141.97;100.00;47934.25;4992919;28;20515;-83
2022/12/07 08:15:41;;;;;;;87.13;38.40;;;;;;;-141.97;99.46;47876.59;4992465;28;20234;-82
2022/12/07 08:18:07;;;;;;;107.60;47.07;;;;;;;-141.97;97.36;47836.22;4992521;28;20175;-84
2022/12/07 08:20:34;;;;;;;91.20;39.60;;;;;;;-141.97;94.63;47901.59;4992938;28;20199;-83
2022/12/07 08:23:00;;;;;;;69.37;32.47;;;;;;;-141.97;92.85;47845.84;4994103;28;20175;-83
2022/12/07 08:25:25;;;;;;;87.80;43.97;;;;;;;-141.97;92.38;47915.03;4996034;28;20218;-83
2022/12/07 08:27:52;;;;;;;108.80;52.00;;;;;;;-141.97;92.01;47941.94;4997849;28;20159;-84
2022/12/07 08:30:17;;;;;;;110.90;54.17;;;;;;;-141.97;91.38;47890.06;4996728;28;20703;-83
2022/12/07 08:32:47;;;;;;;115.07;56.33;;;;;;;-141.97;89.57;47880.44;4995320;28;20262;-83
2022/12/07 08:35:13;;;;;;;145.27;58.03;;;;;;;-141.97;86.80;47893.91;4996900;28;20225;-81
2022/12/07 08:37:39;;;;;;;93.67;43.13;;;;;;;-141.97;85.42;47845.84;4998075;28;20227;-84
2022/12/07 08:40:06;;;;;;;102.33;47.80;;;;;;;-141.97;84.68;47884.28;4997881;28;20662;-83
2022/12/07 08:42:37;;;;;;;117.00;54.80;;;;;;;-141.97;85.47;47861.22;4996460;28;20647;-83
2022/12/07 08:45:09;;;;;;;93.00;41.57;;;;;;;-141.97;86.29;47866.97;4996047;28;20160;-83
2022/12/07 08:47:38;;;;;;;69.50;33.57;;;;;;;-141.97;84.62;47874.69;4995355;28;20179;-83
2022/12/07 08:50:06;;;;;;;68.87;31.73;;;;;;;-141.97;83.57;47966.94;4995122;28;20191;-82
2022/12/07 08:52:34;;;;;;;68.33;28.43;;;;;;;-141.97;82.70;47915.03;4995659;28;20170;-81
2022/12/07 08:55:00;;;;;;;61.03;27.07;;;;;;;-141.97;82.41;47884.28;4994318;28;20176;-82
2022/12/07 08:57:28;;;;;;;56.00;26.80;;;;;;;-141.97;81.66;47843.91;4995351;28;20168;-82
2022/12/07 08:59:53;;;;;;;60.03;27.80;;;;;;;-141.97;80.90;47916.97;4994895;28;20245;-82
2022/12/07 09:02:19;;;;;;;65.70;28.90;;;;;;;-141.97;80.12;47884.28;4994965;28;20179;-81
2022/12/07 09:04:44;;;;;;;68.30;29.97;;;;;;;-141.97;79.29;47913.13;4994730;28;20180;-82
2022/12/07 09:07:10;;;;;;;60.07;29.93;;;;;;;-141.97;80.71;47836.22;4993358;28;20179;-82
2022/12/07 09:09:35;;;;;;;60.40;29.17;;;;;;;-141.97;82.71;47695.91;4994721;28;20172;-81
2022/12/07 09:12:01;;;;;;;59.97;29.87;;;;;;;-141.97;81.41;47843.91;4995168;28;20179;-82
2022/12/07 09:14:26;;;;;;;65.10;28.97;;;;;;;-141.97;80.42;47853.53;4993431;28;20207;-82
2022/12/07 09:16:52;;;;;;;63.97;28.60;;;;;;;-141.97;80.39;47749.72;4994905;28;20190;-82
2022/12/07 09:19:17;;;;;;;65.13;31.37;;;;;;;-141.97;79.93;47849.69;4994675;28;20568;-83
2022/12/07 09:21:43;;;;;;;74.23;31.63;;;;;;;-141.97;80.44;47843.91;4994906;28;20266;-83
2022/12/07 09:24:09;;;;;;;65.47;31.33;;;;;;;-141.97;79.86;47870.81;4994470;28;20171;-82
2022/12/07 09:26:35;;;;;;;70.27;30.87;;;;;;;-141.97;79.87;47840.06;4994589;28;20202;-82
2022/12/07 09:29:02;;;;;;;66.17;31.70;;;;;;;-141.97;64.52;47828.53;4994399;28;20573;-84
2022/12/07 09:31:27;;;;;;;68.97;25.47;;;;;;;-141.97;63.57;47982.31;4994487;28;20212;-82
2022/12/07 09:34:00;;;;;;;58.10;26.80;;;;;;;-141.97;63.73;47880.44;4994237;28;20654;-82
2022/12/07 09:36:26;;;;;;;54.23;24.90;;;;;;;-141.97;63.56;47842.00;4994570;28;20172;-82
2022/12/07 09:38:52;;;;;;;53.77;25.30;;;;;;;-141.97;62.63;47842.00;4994469;28;20163;-82
2022/12/07 09:41:18;;;;;;;59.60;25.63;;;;;;;-141.97;63.93;47882.38;4994471;28;20195;-83
2022/12/07 09:43:43;;;;;;;51.43;24.63;;;;;;;-141.97;63.99;47870.81;4994259;28;20171;-81
2022/12/07 09:46:14;;;;;;;54.53;23.97;;;;;;;-141.97;64.01;47818.94;4994979;28;20214;-82
2022/12/07 09:48:40;;;;;;;50.87;25.13;;;;;;;-141.97;63.73;47849.69;4994625;28;20171;-81
2022/12/07 09:51:16;;;;;;;53.77;25.73;;;;;;;-141.97;63.95;47853.53;4993111;28;20326;-82
2022/12/07 09:53:42;;;;;;;49.53;24.87;;;;;;;-141.97;63.93;47792.03;4995755;28;20538;-83
2022/12/07 09:56:13;;;;;;;51.87;25.40;;;;;;;-141.97;65.35;47840.06;4995243;28;20242;-82
2022/12/07 09:58:38;;;;;;;55.27;25.43;;;;;;;-141.97;63.52;47845.84;4994972;28;20253;-82
2022/12/07 10:01:14;;;;;;;68.80;29.30;;;;;;;-141.97;62.61;47861.22;4994779;28;20203;-82
2022/12/07 10:03:48;;;;;;;58.23;26.13;;;;;;;-141.97;60.96;47832.38;4997636;28;20198;-82
2022/12/07 10:06:14;;;;;;;54.87;22.97;;;;;;;-141.97;60.88;47834.31;4996696;28;20171;-82
2022/12/07 10:08:41;;;;;;;50.03;23.27;;;;;;;-141.97;60.75;47811.25;4995335;28;20623;-82
2022/12/07 10:11:10;;;;;;;45.93;20.53;;;;;;;-141.97;61.01;47815.09;4994632;28;20207;-82
2022/12/07 10:13:46;;;;;;;40.47;18.97;;;;;;;-141.97;60.74;47817.00;4996862;28;20164;-82
2022/12/07 10:16:31;;;;;;;46.23;22.30;;;;;;;-141.97;60.49;47834.31;4978661;28;20591;-82
2022/12/07 10:18:56;;;;;;;36.30;17.47;;;;;;;-141.97;60.52;47838.16;4994220;28;20792;-82
2022/12/07 10:21:25;;;;;;;37.03;18.10;;;;;;;-141.97;59.82;47838.16;4993908;28;20222;-82
2022/12/07 10:24:25;;;;;;;38.60;17.87;;;;;;;-141.97;60.49;47795.88;4993997;28;20164;-82
2022/12/07 10:26:53;;;;;;;43.27;19.77;;;;;;;-141.97;60.32;47811.25;4896607;29;20179;-82
2022/12/07 10:29:36;;;;;;;44.73;21.13;;;;;;;-141.97;61.14;47849.69;4896669;29;20226;-82
2022/12/07 10:32:05;;;;;;;41.80;21.27;;;;;;;-141.97;61.45;47851.59;4898334;29;20171;-83
2022/12/07 10:34:33;;;;;;;41.23;20.53;;;;;;;-141.97;61.82;47818.94;4896951;29;20187;-83
2022/12/07 10:37:14;;;;;;;46.27;22.40;;;;;;;-141.97;62.03;47836.22;4896715;29;20258;-83
2022/12/07 10:39:46;;;;;;;41.30;19.63;;;;;;;-141.97;60.64;47861.22;4895589;29;20183;-83
2022/12/07 10:42:22;;;;;;;42.47;18.80;;;;;;;-141.97;59.04;47830.47;4895909;29;20206;-83
2022/12/07 10:44:49;;;;;;;40.83;18.67;;;;;;;-141.97;58.31;47778.56;4895629;29;20193;-82
2022/12/07 10:47:47;;;;;;;37.37;18.60;;;;;;;-141.97;59.17;47870.81;4894788;29;20239;-82
2022/12/07 10:50:41;;;;;;;37.53;18.63;;;;;;;-141.97;58.85;47830.47;4858650;29;20260;-82
2022/12/07 10:53:31;;;;;;;38.83;17.67;;;;;;;-141.97;59.86;47861.22;4859907;29;20660;-81
2022/12/07 10:56:11;;;;;;;38.17;18.33;;;;;;;-141.97;60.53;47820.84;4857814;29;20354;-82
2022/12/07 10:59:10;;;;;;;38.03;18.87;;;;;;;-141.97;60.34;47830.47;4857537;29;20239;-82
2022/12/07 11:01:49;;;;;;;39.03;17.90;;;;;;;-141.97;60.19;47853.53;4918695;29;20604;-82
2022/12/07 11:04:35;;;;;;;42.43;19.20;;;;;;;-141.97;59.91;47817.00;4932783;29;20177;-82
2022/12/07 11:07:11;;;;;;;36.23;17.73;;;;;;;-141.97;58.52;47815.09;4932483;29;20200;-82